sensor_id;sensor_type;location;lat;lon;timestamp;pressure;altitude;pressure_sealevel;temperature;humidity
24962;BME280;12992;50.884;13.668;2022-11-20T00:01:39;96725.19;;;-5.61;100.00
24962;BME280;12992;50.884;13.668;2022-11-20T00:04:04;96702.69;;;-5.65;100.00
24962;BME280;12992;50.884;13.668;2022-11-20T00:06:30;96689.75;;;-5.76;100.00
24962;BME280;12992;50.884;13.668;2022-11-20T00:08:57;96667.97;;;-5.94;100.00
24962;BME280;12992;50.884;13.668;2022-11-20T00:11:24;96677.38;;;-5.92;100.00
24962;BME280;12992;50.884;13.668;2022-11-20T00:13:52;96683.81;;;-5.86;100.00
24962;BME280;12992;50.884;13.668;2022-11-20T00:16:19;96695.59;;;-5.81;100.00
24962;BME280;12992;50.884;13.668;2022-11-20T00:18:45;96710.97;;;-5.68;100.00
24962;BME280;12992;50.884;13.668;2022-11-20T00:21:16;96727.00;;;-5.53;100.00
24962;BME280;12992;50.884;13.668;2022-11-20T00:23:42;96681.50;;;-5.81;100.00
24962;BME280;12992;50.884;13.668;2022-11-20T00:26:10;96717.41;;;-5.62;100.00
24962;BME280;12992;50.884;13.668;2022-11-20T00:28:36;96714.13;;;-5.64;100.00
24962;BME280;12992;50.884;13.668;2022-11-20T00:31:13;96691.41;;;-5.75;100.00
24962;BME280;12992;50.884;13.668;2022-11-20T00:33:39;96681.69;;;-5.83;100.00
24962;BME280;12992;50.884;13.668;2022-11-20T00:36:06;96686.81;;;-5.81;100.00
24962;BME280;12992;50.884;13.668;2022-11-20T00:38:33;96680.50;;;-5.88;100.00
24962;BME280;12992;50.884;13.668;2022-11-20T00:41:04;96663.19;;;-5.99;100.00
24962;BME280;12992;50.884;13.668;2022-11-20T00:43:29;96685.81;;;-5.88;100.00
24962;BME280;12992;50.884;13.668;2022-11-20T00:45:59;96700.38;;;-5.76;100.00
24962;BME280;12992;50.884;13.668;2022-11-20T00:48:25;96694.06;;;-5.83;100.00
24962;BME280;12992;50.884;13.668;2022-11-20T00:50:51;96674.28;;;-6.04;100.00
24962;BME280;12992;50.884;13.668;2022-11-20T00:53:16;96676.75;;;-6.02;100.00
24962;BME280;12992;50.884;13.668;2022-11-20T00:55:41;96696.81;;;-5.91;100.00
24962;BME280;12992;50.884;13.668;2022-11-20T00:58:07;96693.81;;;-5.96;100.00
24962;BME280;12992;50.884;13.668;2022-11-20T01:00:32;96707.03;;;-5.88;100.00
24962;BME280;12992;50.884;13.668;2022-11-20T01:02:57;96693.81;;;-5.96;100.00
24962;BME280;12992;50.884;13.668;2022-11-20T01:05:23;96708.06;;;-5.97;100.00
24962;BME280;12992;50.884;13.668;2022-11-20T01:07:48;96698.28;;;-6.05;100.00
24962;BME280;12992;50.884;13.668;2022-11-20T01:10:13;96707.72;;;-5.94;100.00
24962;BME280;12992;50.884;13.668;2022-11-20T01:12:39;96687.88;;;-6.07;100.00
24962;BME280;12992;50.884;13.668;2022-11-20T01:15:04;96696.00;;;-6.08;100.00
24962;BME280;12992;50.884;13.668;2022-11-20T01:17:31;96683.56;;;-6.08;100.00
24962;BME280;12992;50.884;13.668;2022-11-20T01:19:56;96687.88;;;-6.07;100.00
24962;BME280;12992;50.884;13.668;2022-11-20T01:22:22;96715.97;;;-5.89;100.00
24962;BME280;12992;50.884;13.668;2022-11-20T01:24:47;96734.53;;;-5.73;100.00
24962;BME280;12992;50.884;13.668;2022-11-20T01:27:12;96745.59;;;-5.61;100.00
24962;BME280;12992;50.884;13.668;2022-11-20T01:29:38;96709.31;;;-5.77;100.00
24962;BME280;12992;50.884;13.668;2022-11-20T01:32:03;96711.66;;;-5.82;100.00
24962;BME280;12992;50.884;13.668;2022-11-20T01:34:29;96692.78;;;-5.87;100.00
24962;BME280;12992;50.884;13.668;2022-11-20T01:36:54;96666.66;;;-6.07;100.00
24962;BME280;12992;50.884;13.668;2022-11-20T01:39:22;96671.97;;;-6.07;100.00
24962;BME280;12992;50.884;13.668;2022-11-20T01:41:49;96670.31;;;-6.08;100.00
24962;BME280;12992;50.884;13.668;2022-11-20T01:47:19;96705.84;;;-5.86;100.00
24962;BME280;12992;50.884;13.668;2022-11-20T01:49:50;96679.56;;;-5.95;100.00
24962;BME280;12992;50.884;13.668;2022-11-20T01:52:20;96670.78;;;-5.96;100.00
24962;BME280;12992;50.884;13.668;2022-11-20T01:57:17;96670.97;;;-5.97;100.00
24962;BME280;12992;50.884;13.668;2022-11-20T02:00:02;96690.78;;;-5.85;100.00
24962;BME280;12992;50.884;13.668;2022-11-20T02:02:39;96684.81;;;-5.87;100.00
24962;BME280;12992;50.884;13.668;2022-11-20T02:05:23;96662.34;;;-6.00;100.00
24962;BME280;12992;50.884;13.668;2022-11-20T02:07:49;96671.44;;;-5.94;100.00
24962;BME280;12992;50.884;13.668;2022-11-20T02:10:15;96672.25;;;-5.93;100.00
24962;BME280;12992;50.884;13.668;2022-11-20T02:12:41;96664.31;;;-5.93;100.00
24962;BME280;12992;50.884;13.668;2022-11-20T02:15:25;96646.75;;;-6.03;100.00
24962;BME280;12992;50.884;13.668;2022-11-20T02:17:50;96635.22;;;-6.18;100.00
24962;BME280;12992;50.884;13.668;2022-11-20T02:20:16;96623.94;;;-6.20;100.00
24962;BME280;12992;50.884;13.668;2022-11-20T02:22:48;96615.34;;;-6.22;100.00
24962;BME280;12992;50.884;13.668;2022-11-20T02:25:16;96640.81;;;-6.13;100.00
24962;BME280;12992;50.884;13.668;2022-11-20T02:27:42;96621.31;;;-6.28;100.00
24962;BME280;12992;50.884;13.668;2022-11-20T02:30:08;96623.63;;;-6.25;100.00
24962;BME280;12992;50.884;13.668;2022-11-20T02:32:36;96614.69;;;-6.32;100.00
24962;BME280;12992;50.884;13.668;2022-11-20T02:35:35;96549.34;;;-6.72;100.00
24962;BME280;12992;50.884;13.668;2022-11-20T02:37:56;96623.00;;;-6.43;100.00
24962;BME280;12992;50.884;13.668;2022-11-20T02:40:23;96602.13;;;-6.54;100.00
24962;BME280;12992;50.884;13.668;2022-11-20T02:42:52;96633.72;;;-6.37;100.00
24962;BME280;12992;50.884;13.668;2022-11-20T02:45:17;96619.34;;;-6.42;100.00
24962;BME280;12992;50.884;13.668;2022-11-20T02:47:43;96638.72;;;-6.34;100.00
24962;BME280;12992;50.884;13.668;2022-11-20T02:50:08;96619.66;;;-6.45;100.00
24962;BME280;12992;50.884;13.668;2022-11-20T02:52:33;96607.09;;;-6.51;100.00
24962;BME280;12992;50.884;13.668;2022-11-20T02:54:59;96631.59;;;-6.41;100.00
24962;BME280;12992;50.884;13.668;2022-11-20T02:57:24;96601.00;;;-6.52;100.00
24962;BME280;12992;50.884;13.668;2022-11-20T02:59:49;96607.75;;;-6.49;100.00
24962;BME280;12992;50.884;13.668;2022-11-20T03:02:15;96622.50;;;-6.55;100.00
24962;BME280;12992;50.884;13.668;2022-11-20T03:04:49;96616.72;;;-6.50;100.00
24962;BME280;12992;50.884;13.668;2022-11-20T03:07:15;96610.75;;;-6.52;100.00
24962;BME280;12992;50.884;13.668;2022-11-20T03:09:40;96603.13;;;-6.64;100.00
24962;BME280;12992;50.884;13.668;2022-11-20T03:12:06;96627.31;;;-6.50;100.00
24962;BME280;12992;50.884;13.668;2022-11-20T03:14:31;96592.53;;;-6.64;100.00
24962;BME280;12992;50.884;13.668;2022-11-20T03:16:57;96607.28;;;-6.61;100.00
24962;BME280;12992;50.884;13.668;2022-11-20T03:19:22;96636.38;;;-6.45;100.00
24962;BME280;12992;50.884;13.668;2022-11-20T03:21:48;96625.31;;;-6.40;100.00
24962;BME280;12992;50.884;13.668;2022-11-20T03:24:13;96643.84;;;-6.32;100.00
24962;BME280;12992;50.884;13.668;2022-11-20T03:26:39;96656.91;;;-6.22;100.00
24962;BME280;12992;50.884;13.668;2022-11-20T03:29:04;96650.78;;;-6.23;100.00
24962;BME280;12992;50.884;13.668;2022-11-20T03:31:35;96663.69;;;-6.12;100.00
24962;BME280;12992;50.884;13.668;2022-11-20T03:34:03;96636.38;;;-6.29;100.00
24962;BME280;12992;50.884;13.668;2022-11-20T03:36:29;96604.28;;;-6.42;100.00
24962;BME280;12992;50.884;13.668;2022-11-20T03:38:55;96601.16;;;-6.53;100.00
24962;BME280;12992;50.884;13.668;2022-11-20T03:41:23;96600.66;;;-6.49;100.00
24962;BME280;12992;50.884;13.668;2022-11-20T03:43:59;96598.16;;;-6.59;100.00
24962;BME280;12992;50.884;13.668;2022-11-20T03:46:25;96617.19;;;-6.55;100.00
24962;BME280;12992;50.884;13.668;2022-11-20T03:48:51;96620.66;;;-6.54;100.00
24962;BME280;12992;50.884;13.668;2022-11-20T03:51:19;96654.09;;;-6.37;100.00
24962;BME280;12992;50.884;13.668;2022-11-20T03:53:46;96619.19;;;-6.49;100.00
24962;BME280;12992;50.884;13.668;2022-11-20T03:56:13;96661.72;;;-6.26;100.00
24962;BME280;12992;50.884;13.668;2022-11-20T03:58:40;96595.88;;;-6.62;100.00
24962;BME280;12992;50.884;13.668;2022-11-20T04:01:14;96618.53;;;-6.51;100.00
24962;BME280;12992;50.884;13.668;2022-11-20T04:03:41;96611.06;;;-6.56;100.00
24962;BME280;12992;50.884;13.668;2022-11-20T04:06:12;96577.00;;;-6.75;100.00
24962;BME280;12992;50.884;13.668;2022-11-20T04:08:38;96559.47;;;-6.92;100.00
24962;BME280;12992;50.884;13.668;2022-11-20T04:13:40;96591.88;;;-6.82;100.00
24962;BME280;12992;50.884;13.668;2022-11-20T04:16:06;96571.03;;;-6.93;100.00
24962;BME280;12992;50.884;13.668;2022-11-20T04:18:32;96583.94;;;-6.82;100.00
24962;BME280;12992;50.884;13.668;2022-11-20T04:20:58;96598.53;;;-6.78;100.00
24962;BME280;12992;50.884;13.668;2022-11-20T04:23:24;96611.59;;;-6.68;100.00
24962;BME280;12992;50.884;13.668;2022-11-20T04:25:49;96568.06;;;-6.90;100.00
24962;BME280;12992;50.884;13.668;2022-11-20T04:28:14;96581.28;;;-6.82;100.00
24962;BME280;12992;50.884;13.668;2022-11-20T04:30:40;96595.34;;;-6.73;100.00
24962;BME280;12992;50.884;13.668;2022-11-20T04:33:06;96584.59;;;-6.72;100.00
24962;BME280;12992;50.884;13.668;2022-11-20T04:35:34;96561.13;;;-6.83;100.00
24962;BME280;12992;50.884;13.668;2022-11-20T04:37:59;96580.28;;;-6.73;100.00
24962;BME280;12992;50.884;13.668;2022-11-20T04:40:25;96570.72;;;-6.74;100.00
24962;BME280;12992;50.884;13.668;2022-11-20T04:42:50;96588.25;;;-6.65;100.00
24962;BME280;12992;50.884;13.668;2022-11-20T04:45:15;96554.66;;;-6.80;100.00
24962;BME280;12992;50.884;13.668;2022-11-20T04:47:41;96561.75;;;-6.81;100.00
24962;BME280;12992;50.884;13.668;2022-11-20T04:50:06;96571.03;;;-6.77;100.00
24962;BME280;12992;50.884;13.668;2022-11-20T04:52:32;96568.41;;;-6.77;100.00
24962;BME280;12992;50.884;13.668;2022-11-20T04:54:57;96550.22;;;-6.96;100.00
24962;BME280;12992;50.884;13.668;2022-11-20T04:57:22;96548.06;;;-6.93;100.00
24962;BME280;12992;50.884;13.668;2022-11-20T04:59:47;96589.75;;;-6.78;100.00
24962;BME280;12992;50.884;13.668;2022-11-20T05:02:13;96579.34;;;-6.80;100.00
24962;BME280;12992;50.884;13.668;2022-11-20T05:04:38;96585.09;;;-6.76;100.00
24962;BME280;12992;50.884;13.668;2022-11-20T05:07:04;96598.53;;;-6.70;100.00
24962;BME280;12992;50.884;13.668;2022-11-20T05:09:29;96589.59;;;-6.77;100.00
24962;BME280;12992;50.884;13.668;2022-11-20T05:11:55;96597.53;;;-6.69;100.00
24962;BME280;12992;50.884;13.668;2022-11-20T05:14:20;96609.41;;;-6.57;100.00
24962;BME280;12992;50.884;13.668;2022-11-20T05:16:45;96597.00;;;-6.64;100.00
24962;BME280;12992;50.884;13.668;2022-11-20T05:19:11;96586.94;;;-6.69;100.00
24962;BME280;12992;50.884;13.668;2022-11-20T05:21:36;96592.53;;;-6.72;100.00
24962;BME280;12992;50.884;13.668;2022-11-20T05:24:01;96597.53;;;-6.69;100.00
24962;BME280;12992;50.884;13.668;2022-11-20T05:26:27;96583.63;;;-6.79;100.00
24962;BME280;12992;50.884;13.668;2022-11-20T05:28:52;96579.66;;;-6.83;100.00
24962;BME280;12992;50.884;13.668;2022-11-20T05:31:24;96555.81;;;-6.91;100.00
24962;BME280;12992;50.884;13.668;2022-11-20T05:33:49;96561.94;;;-6.99;100.00
24962;BME280;12992;50.884;13.668;2022-11-20T05:36:15;96558.63;;;-7.01;100.00
24962;BME280;12992;50.884;13.668;2022-11-20T05:38:42;96596.53;;;-6.76;100.00
24962;BME280;12992;50.884;13.668;2022-11-20T05:41:12;96604.13;;;-6.65;100.00
24962;BME280;12992;50.884;13.668;2022-11-20T05:43:40;96584.59;;;-6.72;100.00
24962;BME280;12992;50.884;13.668;2022-11-20T05:46:07;96586.94;;;-6.77;100.00
24962;BME280;12992;50.884;13.668;2022-11-20T05:48:33;96572.53;;;-6.82;100.00
24962;BME280;12992;50.884;13.668;2022-11-20T05:51:00;96588.59;;;-6.68;100.00
24962;BME280;12992;50.884;13.668;2022-11-20T05:53:26;96593.38;;;-6.63;100.00
24962;BME280;12992;50.884;13.668;2022-11-20T05:55:59;96612.25;;;-6.50;100.00
24962;BME280;12992;50.884;13.668;2022-11-20T05:58:24;96640.84;;;-6.29;100.00
24962;BME280;12992;50.884;13.668;2022-11-20T06:00:49;96664.31;;;-6.02;100.00
24962;BME280;12992;50.884;13.668;2022-11-20T06:03:15;96689.75;;;-5.76;100.00
24962;BME280;12992;50.884;13.668;2022-11-20T06:05:40;96696.84;;;-5.60;100.00
24962;BME280;12992;50.884;13.668;2022-11-20T06:08:05;96705.75;;;-5.45;100.00
24962;BME280;12992;50.884;13.668;2022-11-20T06:10:31;96696.59;;;-5.34;99.29
24962;BME280;12992;50.884;13.668;2022-11-20T06:12:59;96690.78;;;-5.30;98.43
24962;BME280;12992;50.884;13.668;2022-11-20T06:15:25;96671.34;;;-5.30;96.58
24962;BME280;12992;50.884;13.668;2022-11-20T06:17:54;96636.28;;;-5.49;97.57
24962;BME280;12992;50.884;13.668;2022-11-20T06:20:20;96650.53;;;-5.42;97.11
24962;BME280;12992;50.884;13.668;2022-11-20T06:22:46;96653.13;;;-5.33;96.37
24962;BME280;12992;50.884;13.668;2022-11-20T06:25:11;96656.63;;;-5.33;96.06
24962;BME280;12992;50.884;13.668;2022-11-20T06:27:37;96661.59;;;-5.30;96.17
24962;BME280;12992;50.884;13.668;2022-11-20T06:30:03;96664.88;;;-5.20;95.01
24962;BME280;12992;50.884;13.668;2022-11-20T06:32:28;96655.34;;;-5.14;94.84
24962;BME280;12992;50.884;13.668;2022-11-20T06:34:54;96631.88;;;-5.25;94.87
24962;BME280;12992;50.884;13.668;2022-11-20T06:37:19;96635.53;;;-5.26;94.84
24962;BME280;12992;50.884;13.668;2022-11-20T06:39:44;96652.41;;;-5.19;94.27
24962;BME280;12992;50.884;13.668;2022-11-20T06:42:10;96609.44;;;-5.46;94.53
24962;BME280;12992;50.884;13.668;2022-11-20T06:44:35;96625.13;;;-5.36;95.20
24962;BME280;12992;50.884;13.668;2022-11-20T06:47:00;96627.44;;;-5.33;94.96
24962;BME280;12992;50.884;13.668;2022-11-20T06:49:26;96632.06;;;-5.27;95.03
24962;BME280;12992;50.884;13.668;2022-11-20T06:51:51;96621.63;;;-5.28;95.09
24962;BME280;12992;50.884;13.668;2022-11-20T06:54:16;96621.78;;;-5.30;94.66
24962;BME280;12992;50.884;13.668;2022-11-20T06:56:42;96592.88;;;-5.48;96.19
24962;BME280;12992;50.884;13.668;2022-11-20T06:59:07;96592.72;;;-5.54;96.73
24962;BME280;12992;50.884;13.668;2022-11-20T07:01:33;96557.19;;;-5.76;96.88
24962;BME280;12992;50.884;13.668;2022-11-20T07:03:58;96595.56;;;-5.56;97.06
24962;BME280;12992;50.884;13.668;2022-11-20T07:06:24;96626.59;;;-5.33;97.05
24962;BME280;12992;50.884;13.668;2022-11-20T07:08:52;96656.50;;;-5.08;96.43
24962;BME280;12992;50.884;13.668;2022-11-20T07:11:17;96672.16;;;-4.91;94.68
24962;BME280;12992;50.884;13.668;2022-11-20T07:13:43;96679.09;;;-4.81;94.47
24962;BME280;12992;50.884;13.668;2022-11-20T07:16:08;96692.72;;;-4.62;93.45
24962;BME280;12992;50.884;13.668;2022-11-20T07:18:34;96687.16;;;-4.52;92.10
24962;BME280;12992;50.884;13.668;2022-11-20T07:21:05;96680.53;;;-4.48;92.18
24962;BME280;12992;50.884;13.668;2022-11-20T07:23:30;96696.16;;;-4.30;91.88
24962;BME280;12992;50.884;13.668;2022-11-20T07:25:56;96740.50;;;-3.85;90.92
24962;BME280;12992;50.884;13.668;2022-11-20T07:28:21;96782.34;;;-3.11;89.04
24962;BME280;12992;50.884;13.668;2022-11-20T07:30:53;96805.97;;;-2.28;86.26
24962;BME280;12992;50.884;13.668;2022-11-20T07:33:18;96845.13;;;-1.28;82.27
24962;BME280;12992;50.884;13.668;2022-11-20T07:35:44;96836.88;;;-0.43;78.81
24962;BME280;12992;50.884;13.668;2022-11-20T07:38:10;96849.13;;;0.54;74.38
24962;BME280;12992;50.884;13.668;2022-11-20T07:40:35;96872.53;;;1.78;71.37
24962;BME280;12992;50.884;13.668;2022-11-20T07:43:00;96876.19;;;2.73;68.00
24962;BME280;12992;50.884;13.668;2022-11-20T07:45:26;96886.84;;;3.79;64.45
24962;BME280;12992;50.884;13.668;2022-11-20T07:47:51;96853.78;;;4.57;62.51
24962;BME280;12992;50.884;13.668;2022-11-20T07:50:17;96714.25;;;3.32;61.55
24962;BME280;12992;50.884;13.668;2022-11-20T07:52:43;96629.69;;;2.30;62.53
24962;BME280;12992;50.884;13.668;2022-11-20T07:55:09;96584.19;;;1.22;65.59
24962;BME280;12992;50.884;13.668;2022-11-20T07:57:34;96520.97;;;0.05;68.80
24962;BME280;12992;50.884;13.668;2022-11-20T08:00:00;96491.59;;;-0.74;71.93
24962;BME280;12992;50.884;13.668;2022-11-20T08:02:25;96477.75;;;-1.37;73.98
24962;BME280;12992;50.884;13.668;2022-11-20T08:04:51;96484.59;;;-1.76;76.46
24962;BME280;12992;50.884;13.668;2022-11-20T08:07:16;96481.41;;;-2.00;78.58
24962;BME280;12992;50.884;13.668;2022-11-20T08:09:41;96484.53;;;-2.24;80.54
24962;BME280;12992;50.884;13.668;2022-11-20T08:12:19;96501.31;;;-2.30;81.23
24962;BME280;12992;50.884;13.668;2022-11-20T08:15:04;96510.47;;;-2.39;82.62
24962;BME280;12992;50.884;13.668;2022-11-20T08:17:30;96528.66;;;-2.49;85.52
24962;BME280;12992;50.884;13.668;2022-11-20T08:19:55;96536.25;;;-2.53;88.86
24962;BME280;12992;50.884;13.668;2022-11-20T08:22:21;96558.63;;;-2.47;90.36
24962;BME280;12992;50.884;13.668;2022-11-20T08:24:46;96561.28;;;-2.47;91.21
24962;BME280;12992;50.884;13.668;2022-11-20T08:27:12;96572.59;;;-2.45;92.13
24962;BME280;12992;50.884;13.668;2022-11-20T08:29:37;96582.25;;;-2.44;93.47
24962;BME280;12992;50.884;13.668;2022-11-20T08:32:03;96589.84;;;-2.41;94.18
24962;BME280;12992;50.884;13.668;2022-11-20T08:34:28;96588.63;;;-2.39;92.66
24962;BME280;12992;50.884;13.668;2022-11-20T08:36:53;96595.81;;;-2.39;95.33
24962;BME280;12992;50.884;13.668;2022-11-20T08:39:19;96598.09;;;-2.36;96.42
24962;BME280;12992;50.884;13.668;2022-11-20T08:41:44;96608.88;;;-2.23;94.33
24962;BME280;12992;50.884;13.668;2022-11-20T08:44:09;96630.19;;;-2.02;91.19
24962;BME280;12992;50.884;13.668;2022-11-20T08:46:40;96631.75;;;-1.79;87.09
24962;BME280;12992;50.884;13.668;2022-11-20T08:49:11;96621.19;;;-1.66;84.56
24962;BME280;12992;50.884;13.668;2022-11-20T08:51:38;96602.31;;;-1.64;84.46
24962;BME280;12992;50.884;13.668;2022-11-20T08:54:04;96614.25;;;-1.54;83.08
24962;BME280;12992;50.884;13.668;2022-11-20T08:56:30;96619.03;;;-1.49;85.35
24962;BME280;12992;50.884;13.668;2022-11-20T08:58:55;96612.88;;;-1.43;84.05
24962;BME280;12992;50.884;13.668;2022-11-20T09:01:22;96603.25;;;-1.37;82.89
24962;BME280;12992;50.884;13.668;2022-11-20T09:03:48;96613.97;;;-1.31;83.35
24962;BME280;12992;50.884;13.668;2022-11-20T09:06:14;96609.84;;;-1.33;84.55
24962;BME280;12992;50.884;13.668;2022-11-20T09:08:40;96610.69;;;-1.26;84.88
24962;BME280;12992;50.884;13.668;2022-11-20T09:11:05;96618.78;;;-1.13;84.30
24962;BME280;12992;50.884;13.668;2022-11-20T09:13:34;96623.50;;;-1.08;86.15
24962;BME280;12992;50.884;13.668;2022-11-20T09:16:04;96629.34;;;-0.92;83.71
24962;BME280;12992;50.884;13.668;2022-11-20T09:18:31;96635.53;;;-0.84;84.99
24962;BME280;12992;50.884;13.668;2022-11-20T09:21:02;96639.63;;;-0.82;87.32
24962;BME280;12992;50.884;13.668;2022-11-20T09:23:31;96643.78;;;-0.73;85.73
24962;BME280;12992;50.884;13.668;2022-11-20T09:25:57;96649.16;;;-0.66;86.06
24962;BME280;12992;50.884;13.668;2022-11-20T09:28:25;96644.41;;;-0.64;86.87
24962;BME280;12992;50.884;13.668;2022-11-20T09:30:51;96653.53;;;-0.52;86.26
24962;BME280;12992;50.884;13.668;2022-11-20T09:33:16;96650.22;;;-0.47;84.05
24962;BME280;12992;50.884;13.668;2022-11-20T09:35:43;96652.91;;;-0.41;84.62
24962;BME280;12992;50.884;13.668;2022-11-20T09:38:08;96669.19;;;-0.29;85.02
24962;BME280;12992;50.884;13.668;2022-11-20T09:40:38;96673.72;;;-0.30;85.57
24962;BME280;12992;50.884;13.668;2022-11-20T09:48:39;96706.09;;;0.15;85.43
24962;BME280;12992;50.884;13.668;2022-11-20T09:51:31;96737.81;;;0.65;84.73
24962;BME280;12992;50.884;13.668;2022-11-20T09:56:39;96710.97;;;0.98;82.00
24962;BME280;12992;50.884;13.668;2022-11-20T09:59:07;96714.88;;;1.02;84.46
24962;BME280;12992;50.884;13.668;2022-11-20T10:01:39;96692.00;;;0.79;86.13
24962;BME280;12992;50.884;13.668;2022-11-20T10:04:20;96687.72;;;0.72;88.64
24962;BME280;12992;50.884;13.668;2022-11-20T10:07:01;96694.13;;;0.71;89.88
24962;BME280;12992;50.884;13.668;2022-11-20T10:09:38;96701.31;;;0.77;93.48
24962;BME280;12992;50.884;13.668;2022-11-20T10:12:25;96702.34;;;0.82;93.81
24962;BME280;12992;50.884;13.668;2022-11-20T10:20:46;96703.69;;;1.18;95.30
24962;BME280;12992;50.884;13.668;2022-11-20T10:23:42;96682.84;;;1.13;94.74
24962;BME280;12992;50.884;13.668;2022-11-20T10:29:09;96676.44;;;1.21;93.87
24962;BME280;12992;50.884;13.668;2022-11-20T10:31:40;96666.38;;;1.10;94.40
24962;BME280;12992;50.884;13.668;2022-11-20T10:34:34;96681.19;;;1.19;93.70
24962;BME280;12992;50.884;13.668;2022-11-20T10:37:12;96711.97;;;1.55;94.05
24962;BME280;12992;50.884;13.668;2022-11-20T10:39:47;96674.09;;;1.31;93.62
24962;BME280;12992;50.884;13.668;2022-11-20T10:42:18;96695.16;;;1.34;94.25
24962;BME280;12992;50.884;13.668;2022-11-20T10:44:52;96671.28;;;1.13;94.37
24962;BME280;12992;50.884;13.668;2022-11-20T10:47:27;96689.44;;;1.24;93.95
24962;BME280;12992;50.884;13.668;2022-11-20T10:49:54;96681.56;;;1.29;94.90
24962;BME280;12992;50.884;13.668;2022-11-20T10:53:05;96703.38;;;1.39;95.85
24962;BME280;12992;50.884;13.668;2022-11-20T10:55:45;96712.28;;;1.78;94.88
24962;BME280;12992;50.884;13.668;2022-11-20T10:58:36;96750.16;;;2.33;93.29
24962;BME280;12992;50.884;13.668;2022-11-20T11:01:26;96726.56;;;2.35;92.07
24962;BME280;12992;50.884;13.668;2022-11-20T11:03:53;96669.00;;;1.93;91.29
24962;BME280;12992;50.884;13.668;2022-11-20T11:06:29;96693.38;;;1.98;93.07
24962;BME280;12992;50.884;13.668;2022-11-20T11:09:00;96644.66;;;1.63;92.44
24962;BME280;12992;50.884;13.668;2022-11-20T11:11:31;96657.03;;;1.64;91.84
24962;BME280;12992;50.884;13.668;2022-11-20T11:14:09;96605.66;;;1.22;93.31
24962;BME280;12992;50.884;13.668;2022-11-20T11:16:35;96636.56;;;1.31;94.51
24962;BME280;12992;50.884;13.668;2022-11-20T11:19:10;96645.19;;;1.40;94.71
24962;BME280;12992;50.884;13.668;2022-11-20T11:21:37;96632.66;;;1.27;95.02
24962;BME280;12992;50.884;13.668;2022-11-20T11:24:19;96611.47;;;1.12;95.74
24962;BME280;12992;50.884;13.668;2022-11-20T11:27:03;96612.75;;;1.03;98.26
24962;BME280;12992;50.884;13.668;2022-11-20T11:29:30;96589.75;;;0.82;99.76
24962;BME280;12992;50.884;13.668;2022-11-20T11:32:28;96577.88;;;0.65;100.00
24962;BME280;12992;50.884;13.668;2022-11-20T11:35:11;96582.63;;;0.63;100.00
24962;BME280;12992;50.884;13.668;2022-11-20T11:37:45;96574.22;;;0.46;100.00
24962;BME280;12992;50.884;13.668;2022-11-20T11:40:12;96560.03;;;0.39;100.00
24962;BME280;12992;50.884;13.668;2022-11-20T11:42:50;96565.59;;;0.44;100.00
24962;BME280;12992;50.884;13.668;2022-11-20T11:45:17;96572.53;;;0.52;100.00
24962;BME280;12992;50.884;13.668;2022-11-20T11:47:46;96584.72;;;0.54;100.00
24962;BME280;12992;50.884;13.668;2022-11-20T11:52:44;96602.81;;;0.66;100.00
24962;BME280;12992;50.884;13.668;2022-11-20T11:55:15;96607.13;;;0.73;100.00
24962;BME280;12992;50.884;13.668;2022-11-20T11:57:54;96607.13;;;0.73;100.00
24962;BME280;12992;50.884;13.668;2022-11-20T12:00:22;96600.56;;;0.63;100.00
24962;BME280;12992;50.884;13.668;2022-11-20T12:05:23;96578.53;;;0.54;100.00
24962;BME280;12992;50.884;13.668;2022-11-20T12:07:57;96562.06;;;0.44;100.00
24962;BME280;12992;50.884;13.668;2022-11-20T12:13:56;96563.09;;;0.43;100.00
24962;BME280;12992;50.884;13.668;2022-11-20T12:16:23;96582.00;;;0.61;100.00
24962;BME280;12992;50.884;13.668;2022-11-20T12:18:51;96592.31;;;0.64;100.00
24962;BME280;12992;50.884;13.668;2022-11-20T12:29:30;96603.38;;;0.81;100.00
24962;BME280;12992;50.884;13.668;2022-11-20T12:35:10;96578.69;;;0.72;100.00
24962;BME280;12992;50.884;13.668;2022-11-20T12:40:34;96587.56;;;0.66;100.00
24962;BME280;12992;50.884;13.668;2022-11-20T12:43:19;96591.03;;;0.73;100.00
24962;BME280;12992;50.884;13.668;2022-11-20T12:49:22;96593.13;;;0.71;100.00
24962;BME280;12992;50.884;13.668;2022-11-20T12:51:52;96571.72;;;0.58;100.00
24962;BME280;12992;50.884;13.668;2022-11-20T12:54:39;96581.59;;;0.64;100.00
24962;BME280;12992;50.884;13.668;2022-11-20T13:02:52;96579.16;;;0.49;100.00
24962;BME280;12992;50.884;13.668;2022-11-20T13:05:55;96556.53;;;0.39;100.00
24962;BME280;12992;50.884;13.668;2022-11-20T13:08:27;96562.69;;;0.46;100.00
24962;BME280;12992;50.884;13.668;2022-11-20T13:11:07;96561.06;;;0.45;100.00
24962;BME280;12992;50.884;13.668;2022-11-20T13:13:56;96566.41;;;0.45;100.00
24962;BME280;12992;50.884;13.668;2022-11-20T13:16:49;96587.19;;;0.56;100.00
24962;BME280;12992;50.884;13.668;2022-11-20T13:19:17;96581.41;;;0.52;100.00
24962;BME280;12992;50.884;13.668;2022-11-20T13:21:45;96578.72;;;0.52;100.00
24962;BME280;12992;50.884;13.668;2022-11-20T13:24:25;96577.88;;;0.59;100.00
24962;BME280;12992;50.884;13.668;2022-11-20T13:29:35;96556.31;;;0.40;100.00
24962;BME280;12992;50.884;13.668;2022-11-20T13:32:06;96564.94;;;0.49;100.00
24962;BME280;12992;50.884;13.668;2022-11-20T13:34:38;96575.03;;;0.53;100.00
24962;BME280;12992;50.884;13.668;2022-11-20T13:37:04;96581.59;;;0.57;100.00
24962;BME280;12992;50.884;13.668;2022-11-20T13:39:34;96570.28;;;0.55;100.00
24962;BME280;12992;50.884;13.668;2022-11-20T13:44:39;96556.09;;;0.42;100.00
24962;BME280;12992;50.884;13.668;2022-11-20T13:47:24;96572.97;;;0.49;100.00
24962;BME280;12992;50.884;13.668;2022-11-20T13:49:51;96566.78;;;0.48;100.00
24962;BME280;12992;50.884;13.668;2022-11-20T13:52:54;96580.34;;;0.60;100.00
24962;BME280;12992;50.884;13.668;2022-11-20T14:00:26;96584.06;;;0.59;100.00
24962;BME280;12992;50.884;13.668;2022-11-20T14:05:23;96581.59;;;0.57;100.00
24962;BME280;12992;50.884;13.668;2022-11-20T14:07:49;96581.59;;;0.57;100.00